Time;durP1;ratioP1;P1;durP2;ratioP2;P2;SDS_P1;SDS_P2;PMS_P1;PMS_P2;Temp;Humidity;BMP_temperature;BMP_pressure;BME280_temperature;BME280_humidity;BME280_pressure;Samples;Min_cycle;Max_cycle;Signal;HPM_P1;HPM_P2
2022/10/27 00:01:55;;;;;;;2.57;1.83;;;;;;;;;;5062764;27;87135;-54
2022/10/27 00:04:24;;;;;;;4.57;2.07;;;;;;;;;;5062999;27;88766;-54
2022/10/27 00:06:52;;;;;;;4.03;2.10;;;;;;;;;;5057845;27;86854;-55
2022/10/27 00:09:20;;;;;;;6.30;1.80;;;;;;;;;;5048198;27;87171;-55
2022/10/27 00:11:48;;;;;;;1.80;1.50;;;;;;;;;;5043261;27;89184;-54
2022/10/27 00:14:18;;;;;;;2.33;1.70;;;;;;;;;;5054594;27;89823;-55
2022/10/27 00:16:47;;;;;;;3.10;2.00;;;;;;;;;;5061698;27;87002;-54
2022/10/27 00:19:16;;;;;;;5.67;2.30;;;;;;;;;;5064323;27;86980;-55
2022/10/27 00:21:44;;;;;;;3.23;1.70;;;;;;;;;;5055271;27;88300;-55
2022/10/27 00:24:12;;;;;;;4.43;1.77;;;;;;;;;;5048549;27;87699;-55
2022/10/27 00:26:40;;;;;;;2.93;1.97;;;;;;;;;;5049267;27;87143;-54
2022/10/27 00:29:09;;;;;;;2.37;1.73;;;;;;;;;;5056128;27;86489;-54
2022/10/27 00:31:38;;;;;;;3.83;1.47;;;;;;;;;;5043901;27;87123;-55
2022/10/27 00:41:28;;;;;;;3.70;2.03;;;;;;;;;;4997433;28;87224;-54
2022/10/27 00:43:56;;;;;;;1.93;1.60;;;;;;;;;;5000673;28;87188;-55
2022/10/27 00:46:27;;;;;;;4.30;1.97;;;;;;;;;;5000554;28;88719;-55
2022/10/27 00:48:57;;;;;;;2.63;1.53;;;;;;;;;;5001416;28;86961;-55
2022/10/27 00:51:25;;;;;;;4.43;1.97;;;;;;;;;;5001129;28;87177;-55
2022/10/27 00:53:53;;;;;;;1.97;1.13;;;;;;;;;;5000634;28;88275;-54
2022/10/27 00:56:22;;;;;;;5.97;2.03;;;;;;;;;;5001124;28;87577;-54
2022/10/27 00:58:50;;;;;;;4.17;1.97;;;;;;;;;;5000829;28;87007;-55
2022/10/27 01:01:18;;;;;;;3.27;1.90;;;;;;;;;;5001673;28;87214;-54
2022/10/27 01:03:46;;;;;;;4.30;2.00;;;;;;;;;;4999375;28;89020;-55
2022/10/27 01:06:16;;;;;;;3.47;2.00;;;;;;;;;;5001080;28;88551;-55
2022/10/27 01:08:44;;;;;;;2.63;1.70;;;;;;;;;;4993783;28;87381;-55
2022/10/27 01:11:13;;;;;;;3.13;2.20;;;;;;;;;;5000605;28;87021;-55
2022/10/27 01:13:41;;;;;;;3.87;1.77;;;;;;;;;;5001013;28;87956;-54
2022/10/27 01:16:12;;;;;;;4.70;2.47;;;;;;;;;;5001262;28;88770;-55
2022/10/27 01:18:49;;;;;;;2.47;1.70;;;;;;;;;;4999772;28;87156;-54
2022/10/27 01:21:31;;;;;;;3.80;2.03;;;;;;;;;;5000565;28;86553;-54
2022/10/27 01:24:06;;;;;;;3.73;1.97;;;;;;;;;;4996385;28;90597;-54
2022/10/27 01:26:41;;;;;;;2.10;1.63;;;;;;;;;;5001129;28;88818;-54
2022/10/27 01:29:14;;;;;;;4.03;1.80;;;;;;;;;;4999617;28;87943;-54
2022/10/27 01:31:44;;;;;;;4.73;1.60;;;;;;;;;;4996640;28;87809;-55
2022/10/27 01:34:16;;;;;;;6.33;2.73;;;;;;;;;;5000224;28;88309;-55
2022/10/27 01:36:46;;;;;;;3.43;2.00;;;;;;;;;;4999912;28;87321;-55
2022/10/27 01:39:15;;;;;;;2.73;1.67;;;;;;;;;;4997068;28;87030;-55
2022/10/27 01:41:44;;;;;;;5.10;1.90;;;;;;;;;;5000463;28;87061;-54
2022/10/27 01:44:13;;;;;;;2.47;1.93;;;;;;;;;;5000864;28;87873;-54
2022/10/27 01:46:43;;;;;;;1.80;1.33;;;;;;;;;;4987358;28;88657;-54
2022/10/27 01:49:11;;;;;;;4.63;2.27;;;;;;;;;;4996820;28;87012;-54
2022/10/27 01:51:40;;;;;;;3.93;1.60;;;;;;;;;;5002444;28;86960;-55
2022/10/27 01:54:08;;;;;;;3.57;1.27;;;;;;;;;;5003236;28;88669;-54
2022/10/27 01:56:41;;;;;;;2.13;1.70;;;;;;;;;;5004396;28;88627;-55
2022/10/27 01:59:14;;;;;;;2.13;1.53;;;;;;;;;;5003917;28;87777;-54
2022/10/27 02:01:47;;;;;;;3.67;2.17;;;;;;;;;;5003894;28;87067;-55
2022/10/27 02:04:17;;;;;;;3.13;1.77;;;;;;;;;;5004344;28;87916;-54
2022/10/27 02:06:47;;;;;;;3.03;1.73;;;;;;;;;;5000465;28;87615;-55
2022/10/27 02:09:17;;;;;;;6.50;1.83;;;;;;;;;;5003675;28;87779;-54
2022/10/27 02:11:45;;;;;;;5.57;2.53;;;;;;;;;;5003891;28;86255;-55
2022/10/27 02:14:14;;;;;;;4.67;2.07;;;;;;;;;;5004022;28;88030;-54
2022/10/27 02:16:43;;;;;;;2.73;1.70;;;;;;;;;;5003824;28;87878;-54
2022/10/27 02:19:14;;;;;;;4.50;1.80;;;;;;;;;;5002188;28;87996;-54
2022/10/27 02:21:42;;;;;;;2.13;1.50;;;;;;;;;;5003130;28;87025;-54
2022/10/27 02:24:10;;;;;;;2.97;1.97;;;;;;;;;;5002778;28;89002;-54
2022/10/27 02:26:39;;;;;;;3.50;1.60;;;;;;;;;;5003690;28;87836;-54
2022/10/27 02:29:07;;;;;;;2.20;1.87;;;;;;;;;;5000693;28;87189;-54
2022/10/27 02:31:36;;;;;;;2.83;1.40;;;;;;;;;;5003026;28;86902;-55
2022/10/27 02:34:04;;;;;;;2.27;1.93;;;;;;;;;;5002574;28;87865;-53
2022/10/27 02:36:34;;;;;;;2.23;1.67;;;;;;;;;;5001390;28;88640;-55
2022/10/27 02:39:02;;;;;;;2.30;1.60;;;;;;;;;;5003651;28;86929;-55
2022/10/27 02:41:31;;;;;;;5.70;1.80;;;;;;;;;;5000205;28;86995;-54
2022/10/27 02:43:59;;;;;;;2.80;1.87;;;;;;;;;;5002824;28;87991;-54
2022/10/27 02:46:27;;;;;;;3.10;1.83;;;;;;;;;;5002644;28;87782;-54
2022/10/27 02:48:55;;;;;;;2.17;1.10;;;;;;;;;;5002176;28;87091;-54
2022/10/27 02:51:24;;;;;;;2.23;1.40;;;;;;;;;;5003313;28;87021;-54
2022/10/27 02:53:53;;;;;;;2.20;1.43;;;;;;;;;;5002433;28;87965;-54
2022/10/27 02:56:22;;;;;;;1.83;1.50;;;;;;;;;;5003528;28;88782;-54
2022/10/27 02:58:50;;;;;;;1.83;1.20;;;;;;;;;;5002811;28;87092;-54
2022/10/27 03:01:18;;;;;;;2.87;1.70;;;;;;;;;;5002707;28;86197;-54
2022/10/27 03:03:47;;;;;;;2.97;1.50;;;;;;;;;;5003244;28;88015;-54
2022/10/27 03:06:15;;;;;;;1.57;1.27;;;;;;;;;;5002790;28;87706;-54
2022/10/27 03:08:43;;;;;;;3.20;1.50;;;;;;;;;;5001721;28;87942;-54
2022/10/27 03:11:13;;;;;;;2.63;1.40;;;;;;;;;;5003047;28;87067;-55
2022/10/27 03:13:41;;;;;;;1.43;1.00;;;;;;;;;;5002877;28;88901;-54
2022/10/27 03:16:09;;;;;;;1.70;0.90;;;;;;;;;;5003021;28;88858;-55
2022/10/27 03:18:37;;;;;;;2.20;1.13;;;;;;;;;;5002119;28;87020;-54
2022/10/27 03:21:06;;;;;;;2.33;1.20;;;;;;;;;;4985311;28;86719;-54
2022/10/27 03:23:34;;;;;;;1.70;1.27;;;;;;;;;;5002313;28;88709;-55
2022/10/27 03:26:02;;;;;;;4.10;1.50;;;;;;;;;;5003291;28;88876;-55
2022/10/27 03:28:34;;;;;;;2.33;1.23;;;;;;;;;;5001872;28;88772;-54
2022/10/27 03:31:02;;;;;;;4.37;1.60;;;;;;;;;;5003205;28;87238;-54
2022/10/27 03:33:30;;;;;;;4.80;2.33;;;;;;;;;;5002070;28;87960;-54
2022/10/27 03:35:59;;;;;;;1.73;1.33;;;;;;;;;;5002720;28;88638;-54
2022/10/27 03:38:27;;;;;;;1.83;1.47;;;;;;;;;;5002219;28;88525;-55
2022/10/27 03:40:55;;;;;;;1.90;1.13;;;;;;;;;;5002267;28;87034;-55
2022/10/27 03:43:23;;;;;;;2.63;1.27;;;;;;;;;;5002364;28;87031;-54
2022/10/27 03:45:53;;;;;;;2.70;1.70;;;;;;;;;;4999869;28;87614;-54
2022/10/27 03:48:27;;;;;;;1.20;0.90;;;;;;;;;;5000207;28;87480;-55
2022/10/27 03:50:55;;;;;;;3.13;1.20;;;;;;;;;;5003178;28;87255;-54
2022/10/27 03:53:23;;;;;;;2.10;1.17;;;;;;;;;;5001903;28;89187;-54
2022/10/27 03:55:52;;;;;;;2.20;1.20;;;;;;;;;;5002555;28;87548;-55
2022/10/27 03:58:20;;;;;;;2.73;1.17;;;;;;;;;;5002216;28;88079;-54
2022/10/27 04:00:48;;;;;;;2.33;1.50;;;;;;;;;;5003126;28;86940;-55
2022/10/27 04:03:18;;;;;;;2.03;1.47;;;;;;;;;;5002585;28;88249;-55
2022/10/27 04:05:49;;;;;;;2.07;1.37;;;;;;;;;;5002682;28;86859;-54
2022/10/27 04:08:17;;;;;;;2.93;1.83;;;;;;;;;;5001951;28;88863;-55
2022/10/27 04:10:46;;;;;;;3.17;1.17;;;;;;;;;;5002720;28;86768;-54
2022/10/27 04:13:14;;;;;;;2.37;1.10;;;;;;;;;;5000975;28;89033;-54
2022/10/27 04:15:42;;;;;;;2.20;1.07;;;;;;;;;;5002220;28;88548;-54
2022/10/27 04:18:11;;;;;;;2.80;1.53;;;;;;;;;;5000831;28;87033;-55
2022/10/27 04:20:40;;;;;;;2.93;1.43;;;;;;;;;;5002762;28;87008;-55
2022/10/27 04:23:09;;;;;;;1.03;1.00;;;;;;;;;;5000700;28;90055;-55
2022/10/27 04:25:37;;;;;;;1.17;1.00;;;;;;;;;;5001519;28;88965;-55
2022/10/27 04:28:05;;;;;;;2.67;1.20;;;;;;;;;;5000746;28;87007;-55
2022/10/27 04:30:34;;;;;;;2.10;1.73;;;;;;;;;;5001637;28;86997;-54
2022/10/27 04:33:02;;;;;;;1.70;1.60;;;;;;;;;;5000762;28;87862;-54
2022/10/27 04:35:30;;;;;;;1.40;1.30;;;;;;;;;;4993690;28;89112;-54
2022/10/27 04:38:00;;;;;;;4.77;1.20;;;;;;;;;;5000548;28;87002;-54
2022/10/27 04:40:28;;;;;;;2.23;1.40;;;;;;;;;;5002310;28;86048;-55
2022/10/27 04:42:56;;;;;;;1.73;1.53;;;;;;;;;;5001329;28;88144;-55
2022/10/27 04:45:25;;;;;;;4.47;1.60;;;;;;;;;;5001028;28;88542;-55
2022/10/27 04:47:53;;;;;;;1.90;1.23;;;;;;;;;;5000713;28;87967;-54
2022/10/27 04:50:22;;;;;;;1.80;1.30;;;;;;;;;;5001213;28;87003;-56
2022/10/27 04:52:57;;;;;;;3.10;1.60;;;;;;;;;;5001065;28;88970;-54
2022/10/27 04:55:26;;;;;;;3.03;1.47;;;;;;;;;;5001440;28;88829;-55
2022/10/27 04:57:55;;;;;;;1.30;1.10;;;;;;;;;;5001097;28;87033;-55
2022/10/27 05:00:23;;;;;;;1.90;0.90;;;;;;;;;;5001949;28;86948;-55
2022/10/27 05:02:55;;;;;;;2.47;1.50;;;;;;;;;;5001526;28;88121;-55
2022/10/27 05:05:24;;;;;;;3.20;1.40;;;;;;;;;;5002013;28;88807;-54
2022/10/27 05:07:53;;;;;;;2.70;1.13;;;;;;;;;;5001240;28;88045;-54
2022/10/27 05:10:21;;;;;;;2.63;1.43;;;;;;;;;;5001177;28;87049;-55
2022/10/27 05:12:51;;;;;;;2.17;1.30;;;;;;;;;;5000271;28;87996;-55
2022/10/27 05:15:20;;;;;;;1.60;1.00;;;;;;;;;;5001010;28;87380;-55
2022/10/27 05:17:48;;;;;;;1.67;1.20;;;;;;;;;;5001552;28;87213;-56
2022/10/27 05:20:17;;;;;;;1.30;1.20;;;;;;;;;;5001425;28;86963;-54
2022/10/27 05:22:45;;;;;;;3.97;1.47;;;;;;;;;;5001020;28;88124;-55
2022/10/27 05:25:13;;;;;;;1.90;1.30;;;;;;;;;;5001898;28;87941;-55
2022/10/27 05:27:41;;;;;;;2.67;1.63;;;;;;;;;;5004727;28;86778;-55
2022/10/27 05:30:13;;;;;;;1.50;1.40;;;;;;;;;;5005905;28;86009;-55
2022/10/27 05:32:42;;;;;;;1.53;1.20;;;;;;;;;;5004333;28;87865;-56
2022/10/27 05:35:14;;;;;;;2.80;1.33;;;;;;;;;;5004038;28;87767;-55
2022/10/27 05:37:44;;;;;;;1.03;0.93;;;;;;;;;;5003395;28;88073;-55
2022/10/27 05:40:12;;;;;;;1.90;1.17;;;;;;;;;;5004484;28;86871;-54
2022/10/27 05:42:41;;;;;;;2.30;1.33;;;;;;;;;;5004265;28;88250;-54
2022/10/27 05:45:09;;;;;;;2.53;1.83;;;;;;;;;;5004183;28;87680;-54
2022/10/27 05:47:39;;;;;;;3.07;1.50;;;;;;;;;;5004198;28;86924;-54
2022/10/27 05:50:08;;;;;;;3.27;1.43;;;;;;;;;;5004777;28;87056;-54
2022/10/27 05:52:36;;;;;;;3.43;1.57;;;;;;;;;;5004116;28;87928;-55
2022/10/27 05:55:05;;;;;;;2.73;1.33;;;;;;;;;;5004855;28;87589;-54
2022/10/27 05:57:33;;;;;;;2.73;1.47;;;;;;;;;;5004045;28;86751;-54
2022/10/27 06:00:01;;;;;;;2.13;1.70;;;;;;;;;;5004004;28;88658;-55
2022/10/27 06:02:29;;;;;;;2.47;1.40;;;;;;;;;;5003544;28;89565;-54
2022/10/27 06:04:59;;;;;;;1.70;1.40;;;;;;;;;;5003865;28;88671;-55
2022/10/27 06:07:28;;;;;;;2.13;1.30;;;;;;;;;;5003871;28;87508;-55
2022/10/27 06:09:56;;;;;;;1.27;1.00;;;;;;;;;;5004153;28;87047;-54
2022/10/27 06:12:24;;;;;;;4.40;1.40;;;;;;;;;;5004032;28;88783;-55
2022/10/27 06:14:53;;;;;;;1.40;0.87;;;;;;;;;;5003887;28;88722;-53
2022/10/27 06:17:21;;;;;;;2.87;1.50;;;;;;;;;;5004167;28;86865;-55
2022/10/27 06:19:49;;;;;;;1.70;1.57;;;;;;;;;;5004558;28;86292;-54
2022/10/27 06:22:19;;;;;;;1.20;1.10;;;;;;;;;;5003678;28;88859;-54
2022/10/27 06:24:47;;;;;;;1.70;1.30;;;;;;;;;;5003741;28;87522;-55
2022/10/27 06:27:15;;;;;;;2.37;1.47;;;;;;;;;;5003067;28;88108;-54
2022/10/27 06:29:44;;;;;;;2.20;1.23;;;;;;;;;;5003566;28;87974;-54
2022/10/27 06:32:12;;;;;;;2.03;1.03;;;;;;;;;;5003640;28;87944;-53
2022/10/27 06:34:41;;;;;;;3.53;1.30;;;;;;;;;;5003357;28;87035;-54
2022/10/27 06:37:09;;;;;;;1.20;0.90;;;;;;;;;;4999846;28;87180;-54
2022/10/27 06:39:40;;;;;;;7.67;1.27;;;;;;;;;;5002538;28;86889;-54
2022/10/27 06:42:08;;;;;;;1.87;1.13;;;;;;;;;;5002578;28;89089;-56
2022/10/27 06:44:36;;;;;;;1.43;0.93;;;;;;;;;;5003120;28;86295;-54
2022/10/27 06:47:05;;;;;;;1.23;0.90;;;;;;;;;;5002250;28;87248;-53
2022/10/27 06:49:33;;;;;;;1.17;0.87;;;;;;;;;;5003300;28;87184;-55
2022/10/27 06:52:01;;;;;;;1.47;1.17;;;;;;;;;;5002738;28;87947;-54
2022/10/27 06:54:30;;;;;;;1.10;1.00;;;;;;;;;;5003206;28;88881;-54
2022/10/27 06:56:59;;;;;;;2.90;1.17;;;;;;;;;;5002374;28;87215;-54
2022/10/27 06:59:28;;;;;;;1.07;0.93;;;;;;;;;;5003644;28;87007;-55
2022/10/27 07:01:56;;;;;;;1.17;0.93;;;;;;;;;;5002563;28;87095;-54
2022/10/27 07:04:24;;;;;;;2.20;1.30;;;;;;;;;;5001706;28;87723;-54
2022/10/27 07:06:53;;;;;;;2.50;1.53;;;;;;;;;;5003054;28;86937;-54
2022/10/27 07:09:21;;;;;;;1.30;1.20;;;;;;;;;;5001125;28;87204;-55
2022/10/27 07:11:49;;;;;;;3.10;1.50;;;;;;;;;;5000344;28;86969;-54
2022/10/27 07:14:19;;;;;;;1.97;1.30;;;;;;;;;;4999296;28;88940;-54
2022/10/27 07:16:47;;;;;;;9.03;1.23;;;;;;;;;;5001565;28;88052;-56
2022/10/27 07:19:16;;;;;;;2.03;1.37;;;;;;;;;;5002605;28;87077;-55
2022/10/27 07:21:44;;;;;;;2.87;1.60;;;;;;;;;;5002896;28;87954;-55
2022/10/27 07:24:12;;;;;;;2.13;1.10;;;;;;;;;;5002120;28;87627;-55
2022/10/27 07:26:41;;;;;;;1.07;1.00;;;;;;;;;;5002732;28;87066;-54
2022/10/27 07:29:10;;;;;;;1.00;0.87;;;;;;;;;;5001962;28;87149;-54
2022/10/27 07:31:39;;;;;;;2.10;0.83;;;;;;;;;;4999292;28;87855;-55
2022/10/27 07:34:07;;;;;;;0.83;0.73;;;;;;;;;;5003073;28;88832;-55
2022/10/27 07:36:36;;;;;;;1.30;1.00;;;;;;;;;;5002621;28;86950;-54
2022/10/27 07:39:04;;;;;;;1.53;1.13;;;;;;;;;;5002288;28;86946;-54
2022/10/27 07:41:33;;;;;;;1.40;1.00;;;;;;;;;;5001883;28;89000;-55
2022/10/27 07:44:01;;;;;;;1.30;1.20;;;;;;;;;;5002296;28;88657;-54
2022/10/27 07:46:29;;;;;;;1.40;0.90;;;;;;;;;;5002908;28;87052;-54
2022/10/27 07:48:59;;;;;;;1.10;1.00;;;;;;;;;;5001911;28;87029;-55
2022/10/27 07:51:27;;;;;;;1.87;1.47;;;;;;;;;;5002521;28;88749;-55
2022/10/27 07:53:56;;;;;;;1.23;0.90;;;;;;;;;;5001590;28;89000;-55
2022/10/27 07:56:25;;;;;;;1.23;0.93;;;;;;;;;;5002628;28;87154;-55
2022/10/27 07:58:53;;;;;;;0.50;0.50;;;;;;;;;;5002060;28;86584;-56
2022/10/27 08:01:22;;;;;;;1.80;1.10;;;;;;;;;;5002551;28;86986;-56
2022/10/27 08:03:50;;;;;;;0.40;0.40;;;;;;;;;;5002934;28;87496;-55
2022/10/27 08:06:20;;;;;;;1.07;0.60;;;;;;;;;;5001808;28;87997;-55
2022/10/27 08:08:48;;;;;;;0.70;0.70;;;;;;;;;;5002177;28;87143;-53
2022/10/27 08:11:17;;;;;;;2.30;1.10;;;;;;;;;;5002294;28;88296;-56
2022/10/27 08:13:45;;;;;;;2.40;1.10;;;;;;;;;;4999702;28;88620;-58
2022/10/27 08:16:13;;;;;;;1.37;0.87;;;;;;;;;;4982984;28;86913;-55
2022/10/27 08:18:42;;;;;;;5.47;1.23;;;;;;;;;;4990336;28;87240;-55
2022/10/27 08:21:10;;;;;;;0.70;0.70;;;;;;;;;;4993678;28;88259;-52
2022/10/27 08:23:40;;;;;;;1.20;0.90;;;;;;;;;;5002565;28;87861;-57
2022/10/27 08:26:08;;;;;;;0.60;0.60;;;;;;;;;;4991326;28;87058;-51
2022/10/27 08:28:37;;;;;;;3.20;1.20;;;;;;;;;;4997517;28;86957;-51
2022/10/27 08:31:05;;;;;;;1.70;0.87;;;;;;;;;;4999782;28;89140;-51
2022/10/27 08:33:33;;;;;;;0.90;0.57;;;;;;;;;;5001583;28;88779;-51
2022/10/27 08:36:02;;;;;;;0.50;0.50;;;;;;;;;;5002252;28;86960;-51
2022/10/27 08:38:31;;;;;;;0.97;0.70;;;;;;;;;;5002061;28;86977;-51
2022/10/27 08:41:04;;;;;;;0.87;0.60;;;;;;;;;;5001391;28;88154;-51
2022/10/27 08:43:51;;;;;;;0.73;0.60;;;;;;;;;;5001671;28;87637;-51
2022/10/27 08:46:21;;;;;;;1.00;0.70;;;;;;;;;;5002263;28;86932;-51
2022/10/27 08:48:49;;;;;;;5.37;0.97;;;;;;;;;;5002431;28;86319;-51
2022/10/27 08:51:19;;;;;;;0.77;0.40;;;;;;;;;;5001508;28;89165;-51
2022/10/27 08:53:48;;;;;;;2.43;0.97;;;;;;;;;;5001799;28;86959;-51
2022/10/27 08:56:18;;;;;;;1.67;0.70;;;;;;;;;;5001670;28;88004;-51
2022/10/27 08:58:46;;;;;;;1.23;0.80;;;;;;;;;;5002222;28;86949;-51
2022/10/27 09:01:21;;;;;;;5.50;0.80;;;;;;;;;;5002168;28;88920;-51
2022/10/27 09:03:54;;;;;;;0.87;0.67;;;;;;;;;;5001662;28;87818;-51
2022/10/27 09:06:24;;;;;;;1.67;0.80;;;;;;;;;;5001711;28;87108;-51
2022/10/27 09:08:55;;;;;;;1.50;0.63;;;;;;;;;;5001916;28;87964;-51
2022/10/27 09:11:26;;;;;;;0.70;0.60;;;;;;;;;;5001415;28;88101;-51
2022/10/27 09:13:58;;;;;;;0.77;0.70;;;;;;;;;;5002033;28;87601;-51
2022/10/27 09:16:29;;;;;;;1.37;0.80;;;;;;;;;;5001524;28;87415;-51
2022/10/27 09:18:57;;;;;;;1.03;0.83;;;;;;;;;;5001481;28;87102;-51
2022/10/27 09:21:26;;;;;;;1.17;0.73;;;;;;;;;;5001221;28;88021;-51
2022/10/27 09:23:55;;;;;;;0.50;0.47;;;;;;;;;;5001348;28;88702;-51
2022/10/27 09:26:26;;;;;;;0.70;0.70;;;;;;;;;;5001710;28;87033;-51
2022/10/27 09:28:55;;;;;;;4.33;1.00;;;;;;;;;;5001239;28;87100;-51
2022/10/27 09:31:25;;;;;;;0.40;0.40;;;;;;;;;;5001643;28;89133;-51
2022/10/27 09:33:54;;;;;;;4.77;0.80;;;;;;;;;;5001146;28;88677;-51
2022/10/27 09:36:23;;;;;;;1.67;0.60;;;;;;;;;;5001264;28;87042;-51
2022/10/27 09:38:51;;;;;;;0.50;0.50;;;;;;;;;;5001988;28;86283;-53
2022/10/27 09:41:19;;;;;;;1.03;0.50;;;;;;;;;;5000890;28;87964;-51
2022/10/27 09:43:49;;;;;;;2.13;0.80;;;;;;;;;;5000873;28;87924;-51
2022/10/27 09:46:22;;;;;;;0.83;0.50;;;;;;;;;;5000652;28;87869;-51
2022/10/27 09:48:51;;;;;;;1.10;0.87;;;;;;;;;;5001274;28;87110;-51
2022/10/27 09:51:20;;;;;;;0.80;0.47;;;;;;;;;;5000893;28;89167;-51
2022/10/27 09:53:49;;;;;;;1.03;0.60;;;;;;;;;;5001174;28;87064;-51
2022/10/27 09:56:18;;;;;;;2.13;0.97;;;;;;;;;;5001142;28;86839;-51
2022/10/27 09:58:56;;;;;;;0.87;0.47;;;;;;;;;;5000739;28;87132;-51
2022/10/27 10:01:25;;;;;;;0.87;0.63;;;;;;;;;;5000578;28;88616;-51
2022/10/27 10:03:54;;;;;;;0.70;0.40;;;;;;;;;;5001149;28;88061;-51
2022/10/27 10:06:31;;;;;;;1.13;0.50;;;;;;;;;;5000466;28;87673;-51
2022/10/27 10:09:33;;;;;;;2.40;1.23;;;;;;;;;;5001160;28;87049;-51
2022/10/27 10:12:16;;;;;;;1.67;0.70;;;;;;;;;;4940430;28;88903;-51
2022/10/27 10:14:52;;;;;;;0.40;0.40;;;;;;;;;;4943329;28;89714;-51
2022/10/27 10:17:24;;;;;;;1.30;0.70;;;;;;;;;;4980488;28;86954;-51
2022/10/27 10:19:52;;;;;;;0.87;0.70;;;;;;;;;;5004575;28;87029;-51
2022/10/27 10:22:22;;;;;;;1.23;0.67;;;;;;;;;;5004095;28;87023;-51
2022/10/27 10:24:50;;;;;;;2.33;0.40;;;;;;;;;;5004223;28;87829;-51
2022/10/27 10:27:26;;;;;;;1.20;0.83;;;;;;;;;;5004542;28;86876;-51
2022/10/27 10:29:55;;;;;;;0.40;0.40;;;;;;;;;;5004686;28;86274;-51
2022/10/27 10:32:24;;;;;;;0.50;0.50;;;;;;;;;;5003879;28;88468;-51
2022/10/27 10:34:52;;;;;;;0.93;0.80;;;;;;;;;;5003935;28;87973;-51
2022/10/27 10:37:34;;;;;;;0.70;0.70;;;;;;;;;;5003099;28;87878;-51
2022/10/27 10:40:21;;;;;;;0.80;0.80;;;;;;;;;;5003994;28;87009;-51
2022/10/27 10:42:50;;;;;;;0.67;0.67;;;;;;;;;;5002700;28;88798;-51
2022/10/27 10:45:20;;;;;;;0.73;0.73;;;;;;;;;;5003906;28;89019;-51
2022/10/27 10:47:48;;;;;;;1.63;0.90;;;;;;;;;;5004068;28;86957;-51
2022/10/27 10:50:17;;;;;;;1.40;1.30;;;;;;;;;;5004186;28;87028;-51
2022/10/27 10:52:47;;;;;;;1.13;0.60;;;;;;;;;;5003557;28;88263;-51
2022/10/27 10:55:17;;;;;;;2.03;0.80;;;;;;;;;;5004354;28;88633;-51
2022/10/27 10:57:47;;;;;;;1.13;0.97;;;;;;;;;;5004142;28;87086;-51
2022/10/27 11:00:15;;;;;;;2.73;1.00;;;;;;;;;;5003825;28;87021;-51
2022/10/27 11:02:45;;;;;;;1.07;0.70;;;;;;;;;;5002941;28;88894;-51
2022/10/27 11:05:14;;;;;;;0.70;0.70;;;;;;;;;;5003146;28;90116;-51
2022/10/27 11:07:42;;;;;;;2.10;1.10;;;;;;;;;;5003164;28;86898;-51
2022/10/27 11:10:11;;;;;;;1.03;0.80;;;;;;;;;;5003441;28;87021;-51
2022/10/27 11:12:40;;;;;;;2.50;0.70;;;;;;;;;;5003095;28;87856;-51
2022/10/27 11:15:14;;;;;;;1.70;0.93;;;;;;;;;;5003271;28;87866;-51
2022/10/27 11:17:43;;;;;;;1.77;0.90;;;;;;;;;;5003608;28;86921;-51
2022/10/27 11:20:14;;;;;;;1.97;0.90;;;;;;;;;;5003737;28;86296;-51
2022/10/27 11:22:43;;;;;;;1.00;0.77;;;;;;;;;;5003167;28;89022;-51
2022/10/27 11:25:15;;;;;;;0.67;0.67;;;;;;;;;;5003244;28;87908;-51
2022/10/27 11:27:45;;;;;;;1.37;0.80;;;;;;;;;;5002994;28;87970;-51
2022/10/27 11:30:17;;;;;;;2.63;0.90;;;;;;;;;;5003645;28;87944;-52
2022/10/27 11:32:47;;;;;;;1.43;0.80;;;;;;;;;;5003393;28;88285;-51
2022/10/27 11:35:19;;;;;;;0.87;0.87;;;;;;;;;;5003295;28;87140;-51
2022/10/27 11:37:49;;;;;;;1.37;0.70;;;;;;;;;;5002674;28;86915;-51
2022/10/27 11:40:21;;;;;;;1.97;0.97;;;;;;;;;;5003041;28;87059;-51
2022/10/27 11:42:52;;;;;;;0.73;0.73;;;;;;;;;;5002408;28;88048;-51
2022/10/27 11:45:21;;;;;;;1.47;0.90;;;;;;;;;;5003041;28;87965;-52
2022/10/27 11:47:50;;;;;;;2.33;0.87;;;;;;;;;;5003062;28;86928;-51
2022/10/27 11:50:21;;;;;;;1.33;1.13;;;;;;;;;;5002921;28;87014;-52
2022/10/27 11:52:50;;;;;;;1.23;1.00;;;;;;;;;;5002106;28;89089;-52
2022/10/27 11:55:18;;;;;;;1.23;0.93;;;;;;;;;;5002638;28;87610;-52
2022/10/27 11:57:48;;;;;;;1.20;1.00;;;;;;;;;;5003030;28;87134;-51
2022/10/27 12:00:18;;;;;;;2.00;0.87;;;;;;;;;;5002819;28;86915;-52
2022/10/27 12:03:04;;;;;;;1.50;1.00;;;;;;;;;;5002669;28;88000;-52
2022/10/27 12:05:36;;;;;;;4.80;1.50;;;;;;;;;;4992763;28;87615;-52
2022/10/27 12:08:08;;;;;;;1.97;0.90;;;;;;;;;;5002420;28;87009;-52
2022/10/27 12:10:37;;;;;;;2.90;1.47;;;;;;;;;;5002617;28;86334;-52
2022/10/27 12:13:06;;;;;;;1.33;1.17;;;;;;;;;;5002248;28;88176;-52
2022/10/27 12:15:36;;;;;;;1.70;1.10;;;;;;;;;;5002207;28;87428;-52
2022/10/27 12:18:05;;;;;;;1.47;1.13;;;;;;;;;;5002328;28;87910;-51
2022/10/27 12:20:39;;;;;;;1.63;1.30;;;;;;;;;;5002869;28;87186;-52
2022/10/27 12:23:09;;;;;;;1.43;1.13;;;;;;;;;;5002661;28;87145;-52
2022/10/27 12:25:38;;;;;;;2.20;1.57;;;;;;;;;;5002563;28;87039;-52
2022/10/27 12:28:07;;;;;;;2.17;1.33;;;;;;;;;;5002662;28;86877;-52
2022/10/27 12:30:35;;;;;;;6.47;1.40;;;;;;;;;;5002566;28;87147;-52
2022/10/27 12:33:04;;;;;;;1.40;1.10;;;;;;;;;;5002105;28;87947;-51
2022/10/27 12:35:39;;;;;;;1.73;1.37;;;;;;;;;;5002107;28;86664;-51
2022/10/27 12:38:11;;;;;;;1.60;1.33;;;;;;;;;;5001762;28;87137;-51
2022/10/27 12:40:40;;;;;;;5.10;1.23;;;;;;;;;;5002192;28;86974;-51
2022/10/27 12:43:11;;;;;;;2.97;1.73;;;;;;;;;;5001212;28;88874;-51
2022/10/27 12:45:46;;;;;;;2.53;1.07;;;;;;;;;;5002327;28;88168;-51
2022/10/27 12:48:16;;;;;;;1.53;0.77;;;;;;;;;;5002227;28;87070;-51
2022/10/27 12:50:47;;;;;;;1.33;0.87;;;;;;;;;;5001883;28;86934;-51
2022/10/27 12:53:22;;;;;;;1.33;1.17;;;;;;;;;;5002038;28;88145;-51
2022/10/27 12:55:56;;;;;;;0.90;0.90;;;;;;;;;;5001846;28;87128;-51
2022/10/27 12:58:26;;;;;;;1.43;1.17;;;;;;;;;;5001810;28;86954;-51
2022/10/27 13:00:57;;;;;;;4.20;1.10;;;;;;;;;;5002003;28;86025;-51
2022/10/27 13:03:44;;;;;;;1.53;1.00;;;;;;;;;;5001132;28;87895;-51
2022/10/27 13:06:14;;;;;;;3.13;1.20;;;;;;;;;;5001188;28;87709;-51
2022/10/27 13:08:53;;;;;;;1.90;1.10;;;;;;;;;;5001162;28;88027;-51
2022/10/27 13:11:30;;;;;;;1.73;1.30;;;;;;;;;;5001299;28;87079;-51
2022/10/27 13:14:05;;;;;;;4.23;1.63;;;;;;;;;;5001618;28;89188;-51
2022/10/27 13:16:35;;;;;;;3.30;1.20;;;;;;;;;;5001604;28;87639;-51
2022/10/27 13:19:06;;;;;;;1.00;1.00;;;;;;;;;;5001316;28;87081;-51
2022/10/27 13:21:37;;;;;;;2.63;1.30;;;;;;;;;;5001647;28;86926;-51
2022/10/27 13:24:13;;;;;;;4.37;1.27;;;;;;;;;;5001587;28;88264;-51
2022/10/27 13:26:42;;;;;;;1.77;1.10;;;;;;;;;;5001487;28;87639;-51
2022/10/27 13:29:14;;;;;;;1.97;1.10;;;;;;;;;;5001927;28;87106;-51
2022/10/27 13:31:42;;;;;;;2.63;1.20;;;;;;;;;;5001895;28;86828;-51
2022/10/27 13:34:20;;;;;;;2.13;1.20;;;;;;;;;;5001307;28;89899;-51
2022/10/27 13:36:48;;;;;;;1.03;0.80;;;;;;;;;;5001072;28;88527;-51
2022/10/27 13:39:37;;;;;;;1.57;1.13;;;;;;;;;;5001766;28;87078;-51
2022/10/27 13:42:16;;;;;;;1.67;1.17;;;;;;;;;;4996967;28;87563;-51
2022/10/27 13:44:46;;;;;;;2.30;1.10;;;;;;;;;;5001376;28;89243;-51
2022/10/27 13:47:15;;;;;;;1.23;1.10;;;;;;;;;;5003127;28;88934;-51
2022/10/27 13:49:53;;;;;;;1.30;1.00;;;;;;;;;;5005073;28;86886;-52
2022/10/27 13:52:22;;;;;;;2.87;1.27;;;;;;;;;;5005120;28;86230;-51
2022/10/27 13:54:51;;;;;;;1.97;1.13;;;;;;;;;;5004280;28;89138;-51
2022/10/27 13:57:34;;;;;;;1.10;0.83;;;;;;;;;;5004267;28;88868;-51
2022/10/27 14:00:10;;;;;;;1.40;1.30;;;;;;;;;;4997453;28;87856;-51
2022/10/27 14:02:41;;;;;;;1.93;1.37;;;;;;;;;;5004664;28;88261;-51
2022/10/27 14:05:14;;;;;;;2.80;1.33;;;;;;;;;;5004377;28;87050;-51
2022/10/27 14:07:42;;;;;;;1.30;1.20;;;;;;;;;;5004682;28;88887;-51
2022/10/27 14:10:13;;;;;;;2.70;0.83;;;;;;;;;;5004620;28;86940;-51
2022/10/27 14:12:41;;;;;;;2.20;1.20;;;;;;;;;;5004163;28;86995;-51
2022/10/27 14:15:17;;;;;;;1.27;1.17;;;;;;;;;;5004175;28;87930;-51
2022/10/27 14:17:45;;;;;;;2.33;1.17;;;;;;;;;;5004172;28;87598;-51
2022/10/27 14:20:17;;;;;;;1.63;1.10;;;;;;;;;;5004621;28;87084;-51
2022/10/27 14:22:46;;;;;;;1.43;1.00;;;;;;;;;;5004914;28;87023;-51
2022/10/27 14:25:16;;;;;;;2.60;1.00;;;;;;;;;;5003119;28;88801;-51
2022/10/27 14:27:45;;;;;;;3.00;1.43;;;;;;;;;;5004228;28;88491;-51
2022/10/27 14:30:14;;;;;;;1.87;1.40;;;;;;;;;;5004476;28;87096;-51
2022/10/27 14:32:44;;;;;;;2.10;1.40;;;;;;;;;;5004133;28;86977;-51
2022/10/27 14:35:22;;;;;;;0.90;0.80;;;;;;;;;;5004016;28;88183;-51
2022/10/27 14:37:56;;;;;;;2.70;1.10;;;;;;;;;;5003783;28;88668;-52
2022/10/27 14:40:26;;;;;;;1.43;1.17;;;;;;;;;;5004302;28;86946;-51
2022/10/27 14:42:54;;;;;;;3.00;1.13;;;;;;;;;;5004428;28;86302;-52
2022/10/27 14:45:23;;;;;;;2.00;1.47;;;;;;;;;;5003812;28;86941;-51
2022/10/27 14:47:54;;;;;;;4.37;1.67;;;;;;;;;;5003507;28;88984;-51
2022/10/27 14:50:24;;;;;;;4.97;1.30;;;;;;;;;;5003097;28;87971;-51
2022/10/27 14:52:53;;;;;;;1.00;0.77;;;;;;;;;;5004054;28;86948;-51
2022/10/27 14:55:27;;;;;;;1.13;0.93;;;;;;;;;;5003978;28;89273;-51
2022/10/27 14:57:56;;;;;;;1.93;1.10;;;;;;;;;;5003358;28;87401;-51
2022/10/27 15:00:28;;;;;;;2.07;1.57;;;;;;;;;;5004186;28;87024;-51
2022/10/27 15:02:58;;;;;;;2.00;1.40;;;;;;;;;;5003719;28;86956;-51
2022/10/27 15:05:27;;;;;;;1.80;1.33;;;;;;;;;;5003816;28;88131;-51
2022/10/27 15:07:55;;;;;;;2.03;1.37;;;;;;;;;;5003890;28;87387;-51